Time;durP1;ratioP1;P1;durP2;ratioP2;P2;SDS_P1;SDS_P2;PMS_P1;PMS_P2;Temp;Humidity;BMP_temperature;BMP_pressure;BME280_temperature;BME280_humidity;BME280_pressure;Samples;Min_cycle;Max_cycle;Signal;HPM_P1;HPM_P2
2023/10/12 00:00:41;;;;;;;1999.90;999.90;;;;;;;;;;5104349;28;20235;-61
2023/10/12 00:03:08;;;;;;;1999.90;999.90;;;;;;;;;;5103862;28;20194;-58
2023/10/12 00:05:35;;;;;;;1999.90;999.90;;;;;;;;;;5103365;28;20206;-60
2023/10/12 00:08:10;;;;;;;1999.90;999.90;;;;;;;;;;5104020;28;20749;-61
2023/10/12 00:10:42;;;;;;;1999.90;999.90;;;;;;;;;;5103692;28;20200;-60
2023/10/12 00:13:12;;;;;;;1999.90;999.90;;;;;;;;;;5103162;28;20598;-60
2023/10/12 00:15:46;;;;;;;1999.90;999.90;;;;;;;;;;5104497;28;20207;-60
2023/10/12 00:18:14;;;;;;;1999.90;999.90;;;;;;;;;;5102204;28;20193;-62
2023/10/12 00:20:44;;;;;;;1999.90;999.90;;;;;;;;;;5103970;28;20190;-61
2023/10/12 00:23:13;;;;;;;1999.90;999.90;;;;;;;;;;5101570;28;20225;-60
2023/10/12 00:25:47;;;;;;;1999.90;999.90;;;;;;;;;;5105069;28;20208;-60
2023/10/12 00:28:17;;;;;;;1999.90;999.90;;;;;;;;;;5103338;28;20190;-60
2023/10/12 00:30:46;;;;;;;1999.90;999.90;;;;;;;;;;5103750;28;20221;-60
2023/10/12 00:33:13;;;;;;;1999.90;999.90;;;;;;;;;;5103698;28;20482;-60
2023/10/12 00:35:43;;;;;;;1999.90;999.90;;;;;;;;;;5103020;28;20199;-61
2023/10/12 00:38:16;;;;;;;1999.90;999.90;;;;;;;;;;5103964;28;20264;-60
2023/10/12 00:40:49;;;;;;;1999.90;999.90;;;;;;;;;;5102496;28;20187;-60
2023/10/12 00:43:20;;;;;;;1999.90;999.90;;;;;;;;;;5102893;28;20273;-61
2023/10/12 00:45:49;;;;;;;1999.90;999.90;;;;;;;;;;5103260;28;20182;-60
2023/10/12 00:48:19;;;;;;;1999.90;999.90;;;;;;;;;;5099943;28;20231;-61
2023/10/12 00:50:48;;;;;;;1999.90;999.90;;;;;;;;;;5102237;28;20197;-60
2023/10/12 00:53:23;;;;;;;1999.90;999.90;;;;;;;;;;5092889;28;20224;-60
2023/10/12 00:55:50;;;;;;;1999.90;999.90;;;;;;;;;;5089501;28;20265;-60
2023/10/12 00:58:22;;;;;;;1999.90;999.90;;;;;;;;;;5087901;28;20198;-59
2023/10/12 01:00:52;;;;;;;1999.90;999.90;;;;;;;;;;5087600;28;20190;-60
2023/10/12 01:03:31;;;;;;;1999.90;999.90;;;;;;;;;;5089219;28;20200;-59
2023/10/12 01:06:20;;;;;;;1999.90;999.90;;;;;;;;;;5087438;28;20199;-60
2023/10/12 01:08:47;;;;;;;1999.90;999.90;;;;;;;;;;5069331;28;20207;-60
2023/10/12 01:11:20;;;;;;;1999.90;999.90;;;;;;;;;;5067167;28;20404;-60
2023/10/12 01:13:55;;;;;;;1999.90;999.90;;;;;;;;;;5068761;28;20585;-62
2023/10/12 01:16:24;;;;;;;1999.90;999.90;;;;;;;;;;5068805;28;20190;-60
2023/10/12 01:18:59;;;;;;;1999.90;999.90;;;;;;;;;;5067746;28;20183;-60
2023/10/12 01:21:28;;;;;;;1999.90;999.90;;;;;;;;;;5068250;28;20249;-60
2023/10/12 01:24:02;;;;;;;1999.90;999.90;;;;;;;;;;5079880;28;20206;-59
2023/10/12 01:26:31;;;;;;;1999.90;999.90;;;;;;;;;;5088719;28;20179;-60
2023/10/12 01:29:00;;;;;;;1999.90;999.90;;;;;;;;;;5087794;28;20653;-59
2023/10/12 01:31:28;;;;;;;1999.90;999.90;;;;;;;;;;5085810;28;20212;-66
2023/10/12 01:33:55;;;;;;;1999.90;999.90;;;;;;;;;;5088531;28;20561;-59
2023/10/12 01:36:27;;;;;;;1999.90;999.90;;;;;;;;;;5087168;28;20202;-59
2023/10/12 01:39:10;;;;;;;1999.90;999.90;;;;;;;;;;5088461;28;20196;-61
2023/10/12 01:41:40;;;;;;;1999.90;999.90;;;;;;;;;;5086755;28;20230;-59
2023/10/12 01:44:10;;;;;;;1999.90;999.90;;;;;;;;;;5087795;28;20181;-60
2023/10/12 01:46:40;;;;;;;1999.90;999.90;;;;;;;;;;5088130;28;20202;-58
2023/10/12 01:49:07;;;;;;;1999.90;999.90;;;;;;;;;;5086602;28;20213;-59
2023/10/12 01:51:42;;;;;;;1999.90;999.90;;;;;;;;;;5086754;28;20200;-58
2023/10/12 01:54:12;;;;;;;1999.90;999.90;;;;;;;;;;5086322;28;20186;-58
2023/10/12 01:56:41;;;;;;;1999.90;999.90;;;;;;;;;;5087908;28;20717;-58
2023/10/12 01:59:08;;;;;;;1999.90;999.90;;;;;;;;;;5086400;28;20201;-58
2023/10/12 02:01:41;;;;;;;1999.90;999.90;;;;;;;;;;5087129;28;20250;-60
2023/10/12 02:04:09;;;;;;;1999.90;999.90;;;;;;;;;;5085025;28;20656;-58
2023/10/12 02:06:39;;;;;;;1999.90;999.90;;;;;;;;;;5085959;28;20771;-60
2023/10/12 02:09:09;;;;;;;1999.90;999.90;;;;;;;;;;5087386;28;20201;-60
2023/10/12 02:11:53;;;;;;;1999.90;999.90;;;;;;;;;;5086287;28;20185;-58
2023/10/12 02:14:32;;;;;;;1999.90;999.90;;;;;;;;;;5087421;28;20185;-61
2023/10/12 02:17:02;;;;;;;1999.90;999.90;;;;;;;;;;5087589;28;20701;-59
2023/10/12 02:19:38;;;;;;;1999.90;999.90;;;;;;;;;;5086604;28;20189;-58
2023/10/12 02:22:06;;;;;;;1999.90;999.90;;;;;;;;;;5086783;28;20217;-59
2023/10/12 02:24:35;;;;;;;1999.90;999.90;;;;;;;;;;5086207;28;20202;-59
2023/10/12 02:27:04;;;;;;;1999.90;999.90;;;;;;;;;;5087359;28;20217;-59
2023/10/12 02:29:36;;;;;;;1999.90;999.90;;;;;;;;;;5086980;28;20197;-58
2023/10/12 02:32:17;;;;;;;1999.90;999.90;;;;;;;;;;5084389;28;20602;-61
2023/10/12 02:34:46;;;;;;;1999.90;999.90;;;;;;;;;;5087341;28;20185;-59
2023/10/12 02:37:21;;;;;;;1999.90;999.90;;;;;;;;;;5085334;28;20194;-58
2023/10/12 02:39:48;;;;;;;1999.90;999.90;;;;;;;;;;5087553;28;20251;-59
2023/10/12 02:42:22;;;;;;;1999.90;999.90;;;;;;;;;;5084866;28;20241;-59
2023/10/12 02:45:10;;;;;;;1999.90;999.90;;;;;;;;;;5087054;28;20223;-60
2023/10/12 02:47:41;;;;;;;1999.90;999.90;;;;;;;;;;5087092;28;20232;-58
2023/10/12 02:50:20;;;;;;;1999.90;999.90;;;;;;;;;;5084916;28;20242;-60
2023/10/12 02:52:52;;;;;;;1999.90;999.90;;;;;;;;;;5086967;28;20277;-59
2023/10/12 02:55:25;;;;;;;1999.90;999.90;;;;;;;;;;5084402;28;20228;-59
2023/10/12 02:57:56;;;;;;;1999.90;999.90;;;;;;;;;;5086676;28;20390;-59
2023/10/12 03:00:33;;;;;;;1999.90;999.90;;;;;;;;;;5085921;28;20195;-58
2023/10/12 03:03:08;;;;;;;1999.90;999.90;;;;;;;;;;5085722;28;20211;-59
2023/10/12 03:05:47;;;;;;;1999.90;999.90;;;;;;;;;;5086865;28;20213;-60
2023/10/12 03:08:16;;;;;;;1999.90;999.90;;;;;;;;;;5085422;28;20195;-58
2023/10/12 03:11:08;;;;;;;1999.90;999.90;;;;;;;;;;5086216;28;20291;-59
2023/10/12 03:13:36;;;;;;;1999.90;999.90;;;;;;;;;;5086438;28;20205;-59
2023/10/12 03:16:13;;;;;;;1999.90;999.90;;;;;;;;;;5083727;28;20622;-59
2023/10/12 03:18:40;;;;;;;1999.90;999.90;;;;;;;;;;5086513;28;20249;-60
2023/10/12 03:21:12;;;;;;;1999.90;999.90;;;;;;;;;;5084499;28;20203;-61
2023/10/12 03:23:40;;;;;;;1999.90;999.90;;;;;;;;;;5086198;28;20219;-60
2023/10/12 03:26:16;;;;;;;1999.90;999.90;;;;;;;;;;5085871;28;20203;-59
2023/10/12 03:28:44;;;;;;;1999.90;999.90;;;;;;;;;;5085481;28;20189;-60
2023/10/12 03:31:21;;;;;;;1999.90;999.90;;;;;;;;;;5085602;28;20189;-59
2023/10/12 03:33:53;;;;;;;1999.90;999.90;;;;;;;;;;5084989;28;20184;-60
2023/10/12 03:36:23;;;;;;;1999.90;999.90;;;;;;;;;;5085578;28;20366;-59
2023/10/12 03:41:55;;;;;;;1999.90;999.90;;;;;;;;;;5084741;28;20228;-59
2023/10/12 03:44:35;;;;;;;1999.90;999.90;;;;;;;;;;5086009;28;20586;-58
2023/10/12 03:47:14;;;;;;;1999.90;999.90;;;;;;;;;;5085072;28;20654;-58
2023/10/12 03:49:57;;;;;;;1999.90;999.90;;;;;;;;;;5086440;28;20563;-60
2023/10/12 03:52:28;;;;;;;1999.90;999.90;;;;;;;;;;5085781;28;20271;-63
2023/10/12 03:55:16;;;;;;;1999.90;999.90;;;;;;;;;;5084615;28;20178;-62
2023/10/12 03:57:47;;;;;;;1999.90;999.90;;;;;;;;;;5086355;28;20926;-59
2023/10/12 04:00:25;;;;;;;1999.90;999.90;;;;;;;;;;5084316;28;20189;-58
2023/10/12 04:02:58;;;;;;;1999.90;999.90;;;;;;;;;;5086028;28;20271;-59
2023/10/12 04:05:46;;;;;;;1999.90;999.90;;;;;;;;;;5085339;28;20190;-58
2023/10/12 04:11:32;;;;;;;1999.90;999.90;;;;;;;;;;5081832;28;20226;-60
2023/10/12 04:17:07;;;;;;;1999.90;999.90;;;;;;;;;;5041983;28;20197;-59
2023/10/12 04:19:42;;;;;;;1999.90;999.90;;;;;;;;;;5043195;28;20190;-61
2023/10/12 04:22:25;;;;;;;1999.90;999.90;;;;;;;;;;5065023;28;20239;-59
2023/10/12 04:24:54;;;;;;;1999.90;999.90;;;;;;;;;;5065266;28;20647;-59
2023/10/12 04:27:38;;;;;;;1999.90;999.90;;;;;;;;;;5065747;28;20184;-60
2023/10/12 04:30:19;;;;;;;1999.90;999.90;;;;;;;;;;5068055;28;20181;-59
2023/10/12 04:32:57;;;;;;;1999.90;999.90;;;;;;;;;;5069501;28;20176;-60
2023/10/12 04:35:52;;;;;;;1999.90;999.90;;;;;;;;;;5079489;28;20184;-59
2023/10/12 04:38:29;;;;;;;1999.90;999.90;;;;;;;;;;5088322;28;20180;-59
2023/10/12 04:43:52;;;;;;;1999.90;999.90;;;;;;;;;;5088391;28;20212;-60
2023/10/12 04:46:27;;;;;;;1999.90;999.90;;;;;;;;;;5088806;28;20176;-59
2023/10/12 04:49:24;;;;;;;1999.90;999.90;;;;;;;;;;5089330;28;20238;-60
2023/10/12 04:51:51;;;;;;;1999.90;999.90;;;;;;;;;;5087670;28;20745;-60
2023/10/12 04:54:23;;;;;;;1999.90;999.90;;;;;;;;;;5089082;28;20213;-59
2023/10/12 04:56:56;;;;;;;1999.90;999.90;;;;;;;;;;5088541;28;20205;-60
2023/10/12 04:59:29;;;;;;;1999.90;999.90;;;;;;;;;;5088360;28;20188;-59
2023/10/12 05:02:16;;;;;;;1999.90;999.90;;;;;;;;;;5088605;28;20540;-60
2023/10/12 05:05:14;;;;;;;1999.90;999.90;;;;;;;;;;5087640;28;20218;-61
2023/10/12 05:07:53;;;;;;;1999.90;999.90;;;;;;;;;;5088566;28;20270;-60
2023/10/12 05:10:26;;;;;;;1999.90;999.90;;;;;;;;;;5088206;28;20627;-59
2023/10/12 05:12:57;;;;;;;1999.90;999.90;;;;;;;;;;5087916;28;20186;-60
2023/10/12 05:15:26;;;;;;;1999.90;999.90;;;;;;;;;;5088620;28;20938;-60
2023/10/12 05:17:54;;;;;;;1999.90;999.90;;;;;;;;;;5087874;28;20275;-59
2023/10/12 05:20:24;;;;;;;1999.90;999.90;;;;;;;;;;5088179;28;20193;-60
2023/10/12 05:22:53;;;;;;;1999.90;999.90;;;;;;;;;;5088134;28;20216;-60
2023/10/12 05:25:20;;;;;;;1999.90;999.90;;;;;;;;;;5087128;28;20196;-60
2023/10/12 05:28:08;;;;;;;1999.90;999.90;;;;;;;;;;5088578;28;20194;-60
2023/10/12 05:30:37;;;;;;;1999.90;999.90;;;;;;;;;;5086636;28;20187;-60
2023/10/12 05:33:06;;;;;;;1999.90;999.90;;;;;;;;;;5088630;28;20187;-60
2023/10/12 05:35:49;;;;;;;1999.90;999.90;;;;;;;;;;5087135;28;20203;-62
2023/10/12 05:38:18;;;;;;;1999.90;999.90;;;;;;;;;;5088103;28;20673;-61
2023/10/12 05:40:53;;;;;;;1999.90;999.90;;;;;;;;;;5087549;28;20290;-61
2023/10/12 05:43:22;;;;;;;1999.90;999.90;;;;;;;;;;5087648;28;20787;-62
2023/10/12 05:45:49;;;;;;;1999.90;999.90;;;;;;;;;;5088837;28;20267;-60
2023/10/12 05:48:19;;;;;;;1999.90;999.90;;;;;;;;;;5087303;28;20194;-61
2023/10/12 05:50:49;;;;;;;1999.90;999.90;;;;;;;;;;5087473;28;20199;-60
2023/10/12 05:53:20;;;;;;;1999.90;999.90;;;;;;;;;;5087800;28;20185;-60
2023/10/12 05:55:48;;;;;;;1999.90;999.90;;;;;;;;;;5087294;28;20186;-61
2023/10/12 05:58:15;;;;;;;1999.90;999.90;;;;;;;;;;5087849;28;20198;-60
2023/10/12 06:00:45;;;;;;;1999.90;999.90;;;;;;;;;;5086274;28;20216;-60
2023/10/12 06:03:16;;;;;;;1999.90;999.90;;;;;;;;;;5087958;28;20208;-62
2023/10/12 06:05:44;;;;;;;1999.90;999.90;;;;;;;;;;5086819;28;20237;-62
2023/10/12 06:08:12;;;;;;;1999.90;999.90;;;;;;;;;;5086623;28;20199;-62
2023/10/12 06:10:42;;;;;;;1999.90;999.90;;;;;;;;;;5086714;28;20204;-60
2023/10/12 06:13:10;;;;;;;1999.90;999.90;;;;;;;;;;5086897;28;20200;-62
2023/10/12 06:15:41;;;;;;;1999.90;999.90;;;;;;;;;;5087563;28;21101;-65
2023/10/12 06:18:10;;;;;;;1999.90;999.90;;;;;;;;;;5086600;28;20184;-61
2023/10/12 06:20:40;;;;;;;1999.90;999.90;;;;;;;;;;5086907;28;20279;-66
2023/10/12 06:23:13;;;;;;;1999.90;999.90;;;;;;;;;;5086449;28;20212;-65
2023/10/12 06:25:43;;;;;;;1999.90;999.90;;;;;;;;;;5087062;28;20183;-63
2023/10/12 06:28:17;;;;;;;1999.90;999.90;;;;;;;;;;5087212;28;20191;-65
2023/10/12 06:30:45;;;;;;;1999.90;999.90;;;;;;;;;;5085966;28;20184;-61
2023/10/12 06:33:14;;;;;;;1999.90;999.90;;;;;;;;;;5087198;28;20246;-65
2023/10/12 06:35:58;;;;;;;1999.90;999.90;;;;;;;;;;5085766;28;20204;-66
2023/10/12 06:38:36;;;;;;;1999.90;999.90;;;;;;;;;;5086975;28;20183;-62
2023/10/12 06:46:43;;;;;;;1999.90;999.90;;;;;;;;;;5082820;28;20557;-64
2023/10/12 06:49:16;;;;;;;1999.90;999.90;;;;;;;;;;5084632;28;20193;-62
2023/10/12 06:51:44;;;;;;;1999.90;999.90;;;;;;;;;;5084460;28;20310;-66
2023/10/12 06:54:19;;;;;;;1999.90;999.90;;;;;;;;;;5086368;28;20212;-63
2023/10/12 06:56:51;;;;;;;1999.90;999.90;;;;;;;;;;5085487;28;20195;-66
2023/10/12 06:59:35;;;;;;;1999.90;999.90;;;;;;;;;;5087524;28;20553;-63
2023/10/12 07:02:10;;;;;;;1999.90;999.90;;;;;;;;;;5085733;28;20208;-65
2023/10/12 07:04:38;;;;;;;1999.90;999.90;;;;;;;;;;5086229;28;20846;-65
2023/10/12 07:07:10;;;;;;;1999.90;999.90;;;;;;;;;;5086641;28;20529;-62
2023/10/12 07:09:43;;;;;;;1999.90;999.90;;;;;;;;;;5085519;28;20192;-63
2023/10/12 07:12:13;;;;;;;1999.90;999.90;;;;;;;;;;5086839;28;20184;-63
2023/10/12 07:14:46;;;;;;;1999.90;999.90;;;;;;;;;;5085227;28;20679;-66
2023/10/12 07:17:13;;;;;;;1999.90;999.90;;;;;;;;;;5086574;28;20272;-66
2023/10/12 07:19:46;;;;;;;1999.90;999.90;;;;;;;;;;5084985;28;20212;-64
2023/10/12 07:22:16;;;;;;;1999.90;999.90;;;;;;;;;;5086196;28;20183;-64
2023/10/12 07:24:43;;;;;;;1999.90;999.90;;;;;;;;;;5085873;28;20310;-63
2023/10/12 07:27:17;;;;;;;1999.90;999.90;;;;;;;;;;5085858;28;20198;-65
2023/10/12 07:29:47;;;;;;;1999.90;999.90;;;;;;;;;;5085832;28;20175;-65
2023/10/12 07:32:31;;;;;;;1999.90;999.90;;;;;;;;;;5083780;28;20856;-62
2023/10/12 07:35:06;;;;;;;1999.90;999.90;;;;;;;;;;5086165;28;20683;-65
2023/10/12 07:37:33;;;;;;;1999.90;999.90;;;;;;;;;;5080405;28;20254;-63
2023/10/12 07:40:17;;;;;;;1999.90;999.90;;;;;;;;;;5084767;28;20191;-66
2023/10/12 07:42:47;;;;;;;1999.90;999.90;;;;;;;;;;5083211;28;20261;-64
2023/10/12 07:45:15;;;;;;;1999.90;999.90;;;;;;;;;;5084964;28;20215;-62
2023/10/12 07:47:46;;;;;;;1999.90;999.90;;;;;;;;;;5085594;28;20193;-66
2023/10/12 07:50:15;;;;;;;1999.90;999.90;;;;;;;;;;5085588;28;20186;-65
2023/10/12 07:52:47;;;;;;;1999.90;999.90;;;;;;;;;;5085256;28;20263;-63
2023/10/12 07:55:16;;;;;;;1999.90;999.90;;;;;;;;;;5086228;28;20178;-63
2023/10/12 07:57:46;;;;;;;1999.90;999.90;;;;;;;;;;5084800;28;20242;-63
2023/10/12 08:00:35;;;;;;;1999.90;999.90;;;;;;;;;;5085815;28;20205;-64
2023/10/12 08:03:16;;;;;;;1999.90;999.90;;;;;;;;;;5086554;28;20290;-62
2023/10/12 08:06:06;;;;;;;1999.90;999.90;;;;;;;;;;5089160;28;20243;-63
2023/10/12 08:08:33;;;;;;;1999.90;999.90;;;;;;;;;;5089020;28;20178;-65
2023/10/12 08:11:08;;;;;;;1999.90;999.90;;;;;;;;;;5087064;28;20188;-63
2023/10/12 08:13:48;;;;;;;1999.90;999.90;;;;;;;;;;5090324;28;20171;-63
2023/10/12 08:16:25;;;;;;;1999.90;999.90;;;;;;;;;;5088396;28;20990;-62
2023/10/12 08:21:43;;;;;;;1999.90;999.90;;;;;;;;;;5088596;28;20305;-62
2023/10/12 08:24:22;;;;;;;1999.90;999.90;;;;;;;;;;5089071;28;20295;-65
2023/10/12 08:26:57;;;;;;;1999.90;999.90;;;;;;;;;;5089508;28;20643;-62
2023/10/12 08:32:27;;;;;;;1999.90;999.90;;;;;;;;;;5088769;28;20183;-62
2023/10/12 08:35:32;;;;;;;1999.90;999.90;;;;;;;;;;5089309;28;20216;-63
2023/10/12 08:38:11;;;;;;;1999.90;999.90;;;;;;;;;;5068578;28;20399;-63
2023/10/12 08:40:54;;;;;;;1999.90;999.90;;;;;;;;;;5072445;28;20523;-65
2023/10/12 08:46:07;;;;;;;1999.90;999.90;;;;;;;;;;5087971;28;20687;-63
2023/10/12 08:48:35;;;;;;;1999.90;999.90;;;;;;;;;;5089158;28;20174;-63
2023/10/12 08:51:09;;;;;;;1999.90;999.90;;;;;;;;;;5088318;28;20255;-62
2023/10/12 08:53:39;;;;;;;1999.90;999.90;;;;;;;;;;5088726;28;20178;-62
2023/10/12 08:56:08;;;;;;;1999.90;999.90;;;;;;;;;;5089004;28;20182;-63
2023/10/12 08:58:43;;;;;;;1999.90;999.90;;;;;;;;;;5082936;28;20248;-62
2023/10/12 09:01:22;;;;;;;1999.90;999.90;;;;;;;;;;5089212;28;20265;-62
2023/10/12 09:03:53;;;;;;;1999.90;999.90;;;;;;;;;;5088385;28;20230;-62
2023/10/12 09:09:05;;;;;;;1999.90;999.90;;;;;;;;;;5088781;28;20190;-63
2023/10/12 09:11:33;;;;;;;1999.90;999.90;;;;;;;;;;5087908;28;20229;-61
2023/10/12 09:14:01;;;;;;;1999.90;999.90;;;;;;;;;;5088311;28;20203;-61
2023/10/12 09:16:29;;;;;;;1999.90;999.90;;;;;;;;;;5085978;28;20276;-63
2023/10/12 09:19:00;;;;;;;1999.90;999.90;;;;;;;;;;5087919;28;20196;-61
2023/10/12 09:21:38;;;;;;;1999.90;999.90;;;;;;;;;;5088315;28;20186;-62
2023/10/12 09:24:14;;;;;;;1999.90;999.90;;;;;;;;;;5085527;28;20207;-62
2023/10/12 09:26:47;;;;;;;1999.90;999.90;;;;;;;;;;5088441;28;20178;-64
2023/10/12 09:29:27;;;;;;;1999.90;999.90;;;;;;;;;;5087528;28;20187;-62
2023/10/12 09:32:16;;;;;;;1999.90;999.90;;;;;;;;;;5087899;28;20205;-63
2023/10/12 09:35:03;;;;;;;1999.90;999.90;;;;;;;;;;5088337;28;20186;-61
2023/10/12 09:37:33;;;;;;;1999.90;999.90;;;;;;;;;;5066784;28;20179;-62
2023/10/12 09:40:21;;;;;;;1999.90;999.90;;;;;;;;;;5067709;28;20180;-64
2023/10/12 09:42:48;;;;;;;1999.90;999.90;;;;;;;;;;5067020;28;20307;-62
2023/10/12 09:45:19;;;;;;;1999.90;999.90;;;;;;;;;;5065841;28;20282;-62
2023/10/12 09:47:55;;;;;;;1999.90;999.90;;;;;;;;;;5067581;28;20183;-63
2023/10/12 09:50:32;;;;;;;1999.90;999.90;;;;;;;;;;5066933;28;20190;-62
2023/10/12 09:53:12;;;;;;;1999.90;999.90;;;;;;;;;;5065986;28;20183;-62
2023/10/12 09:55:45;;;;;;;1999.90;999.90;;;;;;;;;;5067457;28;20850;-61
2023/10/12 09:58:22;;;;;;;1999.90;999.90;;;;;;;;;;5078187;28;20191;-62
2023/10/12 10:01:07;;;;;;;1999.90;999.90;;;;;;;;;;5086163;28;20192;-61
2023/10/12 10:03:47;;;;;;;1999.90;999.90;;;;;;;;;;5086833;28;20196;-61
2023/10/12 10:11:45;;;;;;;1999.90;999.90;;;;;;;;;;5064384;28;20579;-61
2023/10/12 10:14:20;;;;;;;1999.90;999.90;;;;;;;;;;5065543;28;20503;-61
2023/10/12 10:16:48;;;;;;;1999.90;999.90;;;;;;;;;;5066318;28;20671;-61
2023/10/12 10:19:16;;;;;;;1999.90;999.90;;;;;;;;;;5065250;28;20295;-61
2023/10/12 10:21:52;;;;;;;1999.90;999.90;;;;;;;;;;5067012;28;20750;-61
2023/10/12 10:24:24;;;;;;;1999.90;999.90;;;;;;;;;;5066715;28;20211;-62
2023/10/12 10:26:59;;;;;;;1999.90;999.90;;;;;;;;;;5066078;28;20182;-61
2023/10/12 10:29:41;;;;;;;1999.90;999.90;;;;;;;;;;5074087;28;20547;-61
2023/10/12 10:32:10;;;;;;;1999.90;999.90;;;;;;;;;;5086532;28;20176;-61
2023/10/12 10:34:40;;;;;;;1999.90;999.90;;;;;;;;;;5086727;28;20723;-61
2023/10/12 10:37:09;;;;;;;1999.90;999.90;;;;;;;;;;5085497;28;20275;-61
2023/10/12 10:39:39;;;;;;;1999.90;999.90;;;;;;;;;;5086961;28;20251;-62
2023/10/12 10:42:08;;;;;;;1999.90;999.90;;;;;;;;;;5085679;28;20230;-61
2023/10/12 10:44:41;;;;;;;1999.90;999.90;;;;;;;;;;5087103;28;20273;-62
2023/10/12 10:47:10;;;;;;;1999.90;999.90;;;;;;;;;;5085471;28;20187;-62
2023/10/12 10:49:39;;;;;;;1999.90;999.90;;;;;;;;;;5087044;28;20192;-61
2023/10/12 10:52:20;;;;;;;1999.90;999.90;;;;;;;;;;5086039;28;20217;-61
2023/10/12 10:55:00;;;;;;;1999.90;999.90;;;;;;;;;;5086321;28;20205;-61
2023/10/12 10:57:31;;;;;;;1999.90;999.90;;;;;;;;;;5086611;28;20186;-62
2023/10/12 10:59:59;;;;;;;1999.90;999.90;;;;;;;;;;5085319;28;20596;-61
2023/10/12 11:02:27;;;;;;;1999.90;999.90;;;;;;;;;;5086992;28;20220;-61
2023/10/12 11:05:00;;;;;;;1999.90;999.90;;;;;;;;;;5085672;28;20225;-62
2023/10/12 11:07:27;;;;;;;1999.90;999.90;;;;;;;;;;5085846;28;20226;-62
2023/10/12 11:12:43;;;;;;;1999.90;999.90;;;;;;;;;;5081666;28;20279;-61
2023/10/12 11:15:11;;;;;;;1999.90;999.90;;;;;;;;;;5086057;28;20201;-61
2023/10/12 11:17:49;;;;;;;1999.90;999.90;;;;;;;;;;5085419;28;20206;-60
2023/10/12 11:20:38;;;;;;;1999.90;999.90;;;;;;;;;;5085966;28;20868;-62
2023/10/12 11:23:07;;;;;;;1999.90;999.90;;;;;;;;;;5084659;28;20221;-61
2023/10/12 11:25:39;;;;;;;1999.90;999.90;;;;;;;;;;5084102;28;20229;-61
2023/10/12 11:28:20;;;;;;;1999.90;999.90;;;;;;;;;;5085724;28;20749;-61
2023/10/12 11:30:51;;;;;;;1999.90;999.90;;;;;;;;;;5085453;28;20221;-61
2023/10/12 11:33:26;;;;;;;1999.90;999.90;;;;;;;;;;5083979;28;20253;-61
2023/10/12 11:36:00;;;;;;;1999.90;999.90;;;;;;;;;;5085769;28;20198;-60
2023/10/12 11:38:28;;;;;;;1999.90;999.90;;;;;;;;;;5084949;28;20629;-60
2023/10/12 11:40:56;;;;;;;1999.90;999.90;;;;;;;;;;5086111;28;20198;-61
2023/10/12 11:43:29;;;;;;;1999.90;999.90;;;;;;;;;;5085003;28;20339;-61
2023/10/12 11:46:01;;;;;;;1999.90;999.90;;;;;;;;;;5085852;28;20202;-59
2023/10/12 11:48:29;;;;;;;1999.90;999.90;;;;;;;;;;5085162;28;20239;-59
2023/10/12 11:50:59;;;;;;;1999.90;999.90;;;;;;;;;;5084514;28;20283;-59
2023/10/12 11:53:28;;;;;;;1999.90;999.90;;;;;;;;;;5083859;28;20213;-60
2023/10/12 11:56:08;;;;;;;1999.90;999.90;;;;;;;;;;5084049;28;20187;-59
2023/10/12 11:58:35;;;;;;;1999.90;999.90;;;;;;;;;;5085733;28;20228;-60
2023/10/12 12:01:03;;;;;;;1999.90;999.90;;;;;;;;;;5085141;28;20244;-61
2023/10/12 12:03:37;;;;;;;1999.90;999.90;;;;;;;;;;5085825;28;20191;-60
2023/10/12 12:06:10;;;;;;;1999.90;999.90;;;;;;;;;;5084778;28;20210;-62
2023/10/12 12:08:37;;;;;;;1999.90;999.90;;;;;;;;;;5085257;28;20182;-61
2023/10/12 12:11:09;;;;;;;1999.90;999.90;;;;;;;;;;5085708;28;20693;-61
2023/10/12 12:13:42;;;;;;;1999.90;999.90;;;;;;;;;;5084901;28;20606;-62
2023/10/12 12:16:10;;;;;;;1999.90;999.90;;;;;;;;;;5085123;28;20175;-61
2023/10/12 12:18:37;;;;;;;1999.90;999.90;;;;;;;;;;5085398;28;20202;-60
2023/10/12 12:21:15;;;;;;;1999.90;999.90;;;;;;;;;;5085161;28;20215;-61
2023/10/12 12:23:47;;;;;;;1999.90;999.90;;;;;;;;;;5085831;28;20182;-61
2023/10/12 12:26:16;;;;;;;1999.90;999.90;;;;;;;;;;5084096;28;20218;-60
2023/10/12 12:28:44;;;;;;;1999.90;999.90;;;;;;;;;;5084295;28;20300;-62
2023/10/12 12:31:13;;;;;;;1999.90;999.90;;;;;;;;;;5084668;28;20723;-61
2023/10/12 12:33:43;;;;;;;1999.90;999.90;;;;;;;;;;5085569;28;20537;-61
2023/10/12 12:36:20;;;;;;;1999.90;999.90;;;;;;;;;;5084431;28;20585;-61
2023/10/12 12:38:57;;;;;;;1999.90;999.90;;;;;;;;;;5083855;28;20354;-60
2023/10/12 12:41:24;;;;;;;1999.90;999.90;;;;;;;;;;5085284;28;20183;-60
2023/10/12 12:43:52;;;;;;;1999.90;999.90;;;;;;;;;;5084893;28;20217;-61
2023/10/12 12:46:20;;;;;;;1999.90;999.90;;;;;;;;;;5085257;28;20214;-61
2023/10/12 12:48:50;;;;;;;1999.90;999.90;;;;;;;;;;5085697;28;20202;-60
2023/10/12 12:51:20;;;;;;;1999.90;999.90;;;;;;;;;;5088579;28;20185;-60
2023/10/12 12:53:48;;;;;;;1999.90;999.90;;;;;;;;;;5089132;28;20194;-61
2023/10/12 12:56:15;;;;;;;1999.90;999.90;;;;;;;;;;5087361;28;20474;-61
2023/10/12 12:58:47;;;;;;;1999.90;999.90;;;;;;;;;;5088830;28;20661;-60
2023/10/12 13:01:16;;;;;;;1999.90;999.90;;;;;;;;;;5087611;28;20620;-60
2023/10/12 13:03:43;;;;;;;1999.90;999.90;;;;;;;;;;5089314;28;20238;-60
2023/10/12 13:06:12;;;;;;;1999.90;999.90;;;;;;;;;;5087415;28;20218;-60
2023/10/12 13:08:41;;;;;;;1999.90;999.90;;;;;;;;;;5088468;28;20192;-60
2023/10/12 13:11:09;;;;;;;1999.90;999.90;;;;;;;;;;5088620;28;20185;-60
2023/10/12 13:13:39;;;;;;;1999.90;999.90;;;;;;;;;;5088156;28;20207;-61
2023/10/12 13:16:06;;;;;;;1999.90;999.90;;;;;;;;;;5088668;28;20594;-61
2023/10/12 13:18:34;;;;;;;1999.90;999.90;;;;;;;;;;5087260;28;20194;-61
2023/10/12 13:21:06;;;;;;;1999.90;999.90;;;;;;;;;;5088822;28;20196;-61
2023/10/12 13:23:35;;;;;;;1999.90;999.90;;;;;;;;;;5087730;28;20227;-61
2023/10/12 13:26:08;;;;;;;1999.90;999.90;;;;;;;;;;5087599;28;20217;-61
2023/10/12 13:28:37;;;;;;;1999.90;999.90;;;;;;;;;;5088464;28;20186;-61
2023/10/12 13:31:05;;;;;;;1999.90;999.90;;;;;;;;;;5087491;28;20205;-61
2023/10/12 13:33:34;;;;;;;1999.90;999.90;;;;;;;;;;5088219;28;20206;-61
2023/10/12 13:36:02;;;;;;;1999.90;999.90;;;;;;;;;;5087046;28;20198;-61
2023/10/12 13:38:33;;;;;;;1999.90;999.90;;;;;;;;;;5087908;28;20205;-61
2023/10/12 13:41:02;;;;;;;1999.90;999.90;;;;;;;;;;5088084;28;20179;-61
2023/10/12 13:43:31;;;;;;;1999.90;999.90;;;;;;;;;;5087199;28;20234;-62
2023/10/12 13:46:06;;;;;;;1999.90;999.90;;;;;;;;;;5087736;28;20605;-60
2023/10/12 13:48:37;;;;;;;1999.90;999.90;;;;;;;;;;5087064;28;20253;-61
2023/10/12 13:51:08;;;;;;;1999.90;999.90;;;;;;;;;;5070497;28;20274;-62
2023/10/12 13:53:37;;;;;;;1999.90;999.90;;;;;;;;;;5086860;28;20186;-61
2023/10/12 13:56:06;;;;;;;1999.90;999.90;;;;;;;;;;5086895;28;20191;-60
2023/10/12 13:58:35;;;;;;;1999.90;999.90;;;;;;;;;;5085598;28;20330;-60
2023/10/12 14:01:03;;;;;;;1999.90;999.90;;;;;;;;;;5085784;28;20187;-60
2023/10/12 14:03:34;;;;;;;1999.90;999.90;;;;;;;;;;5087034;28;21008;-61
2023/10/12 14:06:02;;;;;;;1999.90;999.90;;;;;;;;;;5086589;28;20649;-60
2023/10/12 14:08:32;;;;;;;1999.90;999.90;;;;;;;;;;5087146;28;20205;-61
2023/10/12 14:11:03;;;;;;;1999.90;999.90;;;;;;;;;;5086961;28;20214;-60
2023/10/12 14:13:30;;;;;;;1999.90;999.90;;;;;;;;;;5086907;28;20180;-61
2023/10/12 14:15:59;;;;;;;1999.90;999.90;;;;;;;;;;5087454;28;20282;-60
2023/10/12 14:18:28;;;;;;;1999.90;999.90;;;;;;;;;;5086312;28;20191;-61
2023/10/12 14:20:56;;;;;;;1999.90;999.90;;;;;;;;;;5087600;28;20198;-65
2023/10/12 14:23:26;;;;;;;1999.90;999.90;;;;;;;;;;5086211;28;20195;-59
2023/10/12 14:25:57;;;;;;;1999.90;999.90;;;;;;;;;;5074543;28;20230;-65
2023/10/12 14:28:31;;;;;;;1999.90;999.90;;;;;;;;;;5066203;28;20175;-59
2023/10/12 14:31:00;;;;;;;1999.90;999.90;;;;;;;;;;5066755;28;20194;-60
2023/10/12 14:33:30;;;;;;;1999.90;999.90;;;;;;;;;;5065043;28;20551;-63
2023/10/12 14:35:58;;;;;;;1999.90;999.90;;;;;;;;;;5081638;28;20214;-60
2023/10/12 14:38:27;;;;;;;1999.90;999.90;;;;;;;;;;5086604;28;20258;-62
2023/10/12 14:40:56;;;;;;;1999.90;999.90;;;;;;;;;;5086122;28;20198;-60
2023/10/12 14:43:25;;;;;;;1999.90;999.90;;;;;;;;;;5086349;28;20237;-61
2023/10/12 14:45:57;;;;;;;1999.90;999.90;;;;;;;;;;5086471;28;20577;-59
2023/10/12 14:48:26;;;;;;;1999.90;999.90;;;;;;;;;;5084365;28;20194;-59